Marinwood, California
Current Conditions -  °F | °C
As of 6:15 PM on Monday 22 Dec 2014 (Local Time) from KDVO Reporting Station
NA  
Wind Chill: 59°   Ceiling: NA
Heat Index: 59°   Visibility: NA
Dew Point: 57°   Wind: 3mph
Humidity: 94%   Direction: 100°E
Pressure: 30.18"   Gusts: NA
Location:  38.0232°N, 122.547°W
Report Text: KDVO 230215Z AUTO 10003KT 15/14 A3018 RMK AO2
Loading
Personal Weather Stations






























Interactive Weather Map New forecast layout! Learn more

10-Day Weather Forecast

Advertisements
Track Severe Weather on mobile